Time;durP1;ratioP1;P1;durP2;ratioP2;P2;SDS_P1;SDS_P2;PMS_P1;PMS_P2;Temp;Humidity;BMP_temperature;BMP_pressure;BME280_temperature;BME280_humidity;BME280_pressure;Samples;Min_cycle;Max_cycle;Signal;HPM_P1;HPM_P2
2022/12/06 00:01:22;;;;;;;12.37;8.30;;;;;;;6.66;100.00;95254.56;5092137;28;20199;-84
2022/12/06 00:03:53;;;;;;;12.47;7.90;;;;;;;6.63;100.00;95241.22;5092407;28;20189;-86
2022/12/06 00:06:21;;;;;;;11.63;7.70;;;;;;;6.66;100.00;95240.84;5092979;28;20192;-83
2022/12/06 00:08:49;;;;;;;12.20;8.10;;;;;;;6.74;100.00;95246.72;5111129;28;20223;-85
2022/12/06 00:11:19;;;;;;;11.80;7.63;;;;;;;6.73;100.00;95236.56;5092929;28;20229;-83
2022/12/06 00:13:47;;;;;;;13.07;8.43;;;;;;;6.71;100.00;95238.53;5111608;28;20200;-84
2022/12/06 00:16:15;;;;;;;13.90;8.17;;;;;;;6.65;100.00;95240.03;5112250;28;20244;-85
2022/12/06 00:18:44;;;;;;;13.13;7.97;;;;;;;6.37;100.00;95221.00;5112385;28;20195;-84
2022/12/06 00:21:13;;;;;;;12.77;8.43;;;;;;;6.48;100.00;95242.97;5111712;28;20196;-87
2022/12/06 00:23:41;;;;;;;12.80;8.30;;;;;;;6.41;100.00;95232.56;5112675;28;20191;-86
2022/12/06 00:26:10;;;;;;;15.70;8.07;;;;;;;6.50;100.00;95246.19;5114590;28;20192;-86
2022/12/06 00:28:41;;;;;;;15.73;9.30;;;;;;;6.50;100.00;95247.00;5109511;28;20207;-84
2022/12/06 00:31:10;;;;;;;13.60;8.20;;;;;;;6.42;100.00;95238.53;5111973;28;20219;-85
2022/12/06 00:33:37;;;;;;;13.33;8.47;;;;;;;6.46;100.00;95243.19;5112299;28;20285;-86
2022/12/06 00:36:08;;;;;;;14.03;8.30;;;;;;;6.39;100.00;95238.88;5104333;28;20234;-85
2022/12/06 00:38:35;;;;;;;12.73;8.37;;;;;;;6.40;100.00;95246.47;5107648;28;20553;-85
2022/12/06 00:41:04;;;;;;;13.67;8.57;;;;;;;6.44;100.00;95250.28;5111700;28;20199;-86
2022/12/06 00:43:32;;;;;;;14.63;8.30;;;;;;;6.41;100.00;95242.88;5111959;28;20233;-85
2022/12/06 00:46:00;;;;;;;14.37;8.27;;;;;;;6.50;100.00;95241.03;5107517;28;20195;-85
2022/12/06 00:48:29;;;;;;;14.43;8.40;;;;;;;6.54;100.00;95243.09;5112075;28;20200;-85
2022/12/06 00:50:56;;;;;;;15.77;7.83;;;;;;;6.56;100.00;95235.16;5111750;28;20199;-85
2022/12/06 00:53:23;;;;;;;13.30;8.20;;;;;;;6.65;100.00;95234.06;5112069;28;20246;-85
2022/12/06 00:55:53;;;;;;;13.47;8.50;;;;;;;6.71;100.00;95230.78;5111595;28;20199;-85
2022/12/06 00:58:20;;;;;;;15.50;8.97;;;;;;;6.76;100.00;95236.19;5099345;28;20193;-85
2022/12/06 01:00:48;;;;;;;13.57;8.30;;;;;;;6.75;100.00;95219.91;5100002;28;20573;-84
2022/12/06 01:03:16;;;;;;;14.97;8.40;;;;;;;6.76;100.00;95233.63;5111497;28;20194;-84
2022/12/06 01:05:45;;;;;;;14.47;8.30;;;;;;;6.79;100.00;95223.72;5111273;28;20572;-84
2022/12/06 01:08:15;;;;;;;14.00;8.30;;;;;;;6.82;100.00;95220.78;5103893;28;20268;-84
2022/12/06 01:10:42;;;;;;;14.20;8.87;;;;;;;6.87;100.00;95227.22;5130531;28;20233;-85
2022/12/06 01:13:09;;;;;;;14.97;8.70;;;;;;;6.91;100.00;95211.16;5131771;28;20214;-85
2022/12/06 01:15:37;;;;;;;14.40;8.67;;;;;;;6.96;100.00;95218.34;5121125;28;20195;-84
2022/12/06 01:18:04;;;;;;;15.33;8.83;;;;;;;7.00;100.00;95215.22;5135716;27;20183;-84
2022/12/06 01:20:34;;;;;;;13.90;8.67;;;;;;;6.94;100.00;95209.97;5136620;27;20198;-83
2022/12/06 01:23:00;;;;;;;15.17;9.17;;;;;;;6.87;100.00;95209.13;5095971;28;20295;-84
2022/12/06 01:25:27;;;;;;;13.93;8.27;;;;;;;6.92;100.00;95212.75;5127390;27;20198;-84
2022/12/06 01:27:54;;;;;;;17.30;9.37;;;;;;;6.94;100.00;95204.81;5131895;27;20225;-82
2022/12/06 01:30:21;;;;;;;14.83;9.50;;;;;;;6.95;100.00;95204.66;5135243;27;20196;-84
2022/12/06 01:32:48;;;;;;;16.50;8.90;;;;;;;7.00;100.00;95198.94;5133654;27;20207;-83
2022/12/06 01:35:15;;;;;;;17.23;9.60;;;;;;;6.98;100.00;95198.31;5133746;27;20198;-83
2022/12/06 01:37:43;;;;;;;15.87;9.53;;;;;;;6.90;100.00;95188.88;5135875;27;20598;-84
2022/12/06 01:40:11;;;;;;;17.90;9.80;;;;;;;6.90;100.00;95198.44;5135313;27;20192;-84
2022/12/06 01:42:37;;;;;;;16.23;9.63;;;;;;;6.83;100.00;95191.41;5094580;28;20201;-83
2022/12/06 01:45:05;;;;;;;18.47;9.97;;;;;;;6.87;100.00;95189.22;5095258;28;20192;-84
2022/12/06 01:47:34;;;;;;;14.53;8.77;;;;;;;6.95;100.00;95199.50;5094299;28;20196;-83
2022/12/06 01:50:05;;;;;;;14.17;8.63;;;;;;;6.91;100.00;95189.69;5096657;27;20192;-80
2022/12/06 01:52:36;;;;;;;13.87;7.63;;;;;;;6.81;100.00;95192.56;5135656;27;20198;-79
2022/12/06 01:55:07;;;;;;;12.97;8.10;;;;;;;6.82;100.00;95199.31;5135272;27;20190;-80
2022/12/06 01:57:35;;;;;;;17.13;8.67;;;;;;;6.78;100.00;95177.44;5128924;27;20203;-80
2022/12/06 02:00:02;;;;;;;16.27;8.23;;;;;;;6.70;100.00;95187.84;5114726;28;20199;-80
2022/12/06 02:02:28;;;;;;;11.77;7.40;;;;;;;6.78;100.00;95193.72;5127829;27;20202;-79
2022/12/06 02:04:57;;;;;;;11.83;7.33;;;;;;;6.83;100.00;95177.69;5134970;27;20191;-80
2022/12/06 02:07:26;;;;;;;9.37;6.63;;;;;;;6.87;100.00;95184.06;5131205;27;21022;-80
2022/12/06 02:09:54;;;;;;;10.93;6.97;;;;;;;6.72;100.00;95166.00;5128405;27;20234;-84
2022/12/06 02:12:22;;;;;;;10.60;6.90;;;;;;;6.89;100.00;95176.16;5134976;27;20222;-84
2022/12/06 02:14:55;;;;;;;11.60;7.23;;;;;;;6.89;100.00;95178.75;5135064;27;20203;-85
2022/12/06 02:17:37;;;;;;;11.27;6.90;;;;;;;6.87;100.00;95178.91;5094190;28;20619;-85
2022/12/06 02:20:12;;;;;;;12.83;7.00;;;;;;;6.86;100.00;95169.56;5125752;27;20187;-84
2022/12/06 02:23:23;;;;;;;13.60;6.90;;;;;;;6.81;100.00;95171.91;5107285;27;20274;-85
2022/12/06 02:26:15;;;;;;;11.47;6.87;;;;;;;6.81;100.00;95170.09;5117449;27;20537;-85
2022/12/06 02:29:14;;;;;;;11.40;6.83;;;;;;;6.90;100.00;95167.44;5133104;27;20239;-85
2022/12/06 02:31:48;;;;;;;12.00;8.00;;;;;;;6.87;100.00;95165.22;5134782;27;20647;-84
2022/12/06 02:34:20;;;;;;;11.63;7.27;;;;;;;6.89;100.00;95164.03;5127475;27;20202;-84
2022/12/06 02:36:54;;;;;;;11.70;6.63;;;;;;;6.57;100.00;95108.47;5134718;27;20664;-84
2022/12/06 02:39:26;;;;;;;15.93;8.63;;;;;;;6.86;100.00;95154.06;5134237;27;20207;-85
2022/12/06 02:41:58;;;;;;;16.50;9.97;;;;;;;6.83;100.00;95139.75;5134646;27;20198;-80
2022/12/06 02:44:29;;;;;;;17.77;9.97;;;;;;;6.88;100.00;95148.72;5134087;27;20183;-80
2022/12/06 02:46:58;;;;;;;15.07;8.00;;;;;;;6.87;100.00;95147.91;5132869;27;20202;-80
2022/12/06 02:49:28;;;;;;;12.37;7.90;;;;;;;6.86;100.00;95130.81;5134223;27;20192;-80
2022/12/06 02:51:57;;;;;;;11.47;7.27;;;;;;;6.92;100.00;95144.78;5133741;27;20231;-79
2022/12/06 02:54:26;;;;;;;13.43;7.27;;;;;;;6.87;100.00;95145.31;5132980;27;20560;-79
2022/12/06 02:56:53;;;;;;;11.57;7.20;;;;;;;6.93;100.00;95138.63;5133518;27;20248;-80
2022/12/06 02:59:20;;;;;;;13.20;7.57;;;;;;;6.98;100.00;95141.47;5129857;27;20199;-81
2022/12/06 03:01:50;;;;;;;11.33;7.27;;;;;;;6.84;100.00;95136.16;5133003;27;20187;-79
2022/12/06 03:04:45;;;;;;;11.63;7.30;;;;;;;6.88;100.00;95135.78;5134562;27;20196;-79
2022/12/06 03:07:24;;;;;;;11.93;6.97;;;;;;;6.81;100.00;95151.25;5133475;27;20225;-79
2022/12/06 03:10:02;;;;;;;12.10;7.10;;;;;;;6.74;100.00;95150.34;5131673;27;20238;-80
2022/12/06 03:12:33;;;;;;;13.23;8.10;;;;;;;6.62;100.00;95146.63;5133104;27;20199;-80
2022/12/06 03:15:13;;;;;;;23.77;14.53;;;;;;;6.65;100.00;95146.28;5132476;27;20195;-79
2022/12/06 03:17:47;;;;;;;30.33;15.67;;;;;;;6.68;100.00;95145.91;5133326;27;20190;-84
2022/12/06 03:20:21;;;;;;;35.07;20.27;;;;;;;6.67;100.00;95145.09;5134204;27;20222;-83
2022/12/06 03:22:54;;;;;;;37.23;20.70;;;;;;;6.74;100.00;95147.78;5133764;27;20182;-84
2022/12/06 03:25:21;;;;;;;82.57;49.10;;;;;;;6.68;100.00;95140.75;5128676;27;20606;-85
2022/12/06 03:27:50;;;;;;;73.30;42.00;;;;;;;6.47;100.00;95146.66;5125491;27;20202;-83
2022/12/06 03:30:17;;;;;;;63.87;39.63;;;;;;;6.36;100.00;95138.56;5119229;27;20194;-84
2022/12/06 03:32:48;;;;;;;62.47;35.63;;;;;;;6.35;100.00;95137.00;5132897;27;20230;-83
2022/12/06 03:35:20;;;;;;;51.00;28.07;;;;;;;6.27;100.00;95130.13;5125168;27;20235;-85
2022/12/06 03:37:51;;;;;;;46.57;25.77;;;;;;;6.25;100.00;95125.16;5133414;27;20193;-84
2022/12/06 03:40:22;;;;;;;37.27;20.53;;;;;;;6.35;100.00;95131.84;5127120;27;20182;-84
2022/12/06 03:42:50;;;;;;;36.47;20.97;;;;;;;6.37;100.00;95132.44;5132405;27;20270;-82
2022/12/06 03:45:18;;;;;;;35.43;20.30;;;;;;;6.35;100.00;95126.66;5133430;27;20660;-83
2022/12/06 03:47:52;;;;;;;37.37;19.80;;;;;;;6.37;100.00;95124.69;5133046;27;20199;-82
2022/12/06 03:50:26;;;;;;;34.33;20.13;;;;;;;6.39;100.00;95128.69;5099665;27;20187;-84
2022/12/06 03:52:53;;;;;;;38.30;20.43;;;;;;;6.46;100.00;95124.44;5132957;27;20207;-84
2022/12/06 03:55:20;;;;;;;37.10;20.87;;;;;;;6.49;100.00;95121.47;5132895;27;20199;-85
2022/12/06 03:57:47;;;;;;;35.03;19.13;;;;;;;6.54;100.00;95124.31;5127601;27;20203;-86
2022/12/06 04:00:16;;;;;;;42.90;22.03;;;;;;;6.58;100.00;95122.97;5133662;27;20202;-86
2022/12/06 04:02:43;;;;;;;53.30;26.87;;;;;;;6.54;100.00;95126.91;5132926;27;20191;-86
2022/12/06 04:05:10;;;;;;;46.93;24.80;;;;;;;6.33;100.00;95126.84;5132958;27;20196;-86
2022/12/06 04:07:39;;;;;;;42.03;23.60;;;;;;;6.22;100.00;95120.34;5132654;27;20679;-86
2022/12/06 04:10:07;;;;;;;42.07;22.90;;;;;;;6.28;100.00;95126.56;5132414;27;20222;-85
2022/12/06 04:15:21;;;;;;;38.20;20.60;;;;;;;6.38;100.00;95114.19;5121394;28;20691;-83
2022/12/06 04:23:02;;;;;;;36.57;18.30;;;;;;;6.49;100.00;95125.84;5131146;28;20197;-83
2022/12/06 04:23:20;;;;;;;32.63;17.33;;;;;;;6.50;100.00;95125.66;5122091;28;20262;-84
2022/12/06 04:25:47;;;;;;;37.03;18.97;;;;;;;6.52;100.00;95130.66;5132512;28;20652;-81
2022/12/06 04:39:12;;;;;;;33.20;17.30;;;;;;;6.60;100.00;95122.78;5132105;28;20197;-79
2022/12/06 04:44:23;;;;;;;33.47;17.10;;;;;;;6.63;100.00;95125.00;5132145;28;20197;-81
2022/12/06 04:46:50;;;;;;;31.63;16.23;;;;;;;6.59;100.00;95114.22;5132170;28;20195;-81
2022/12/06 04:49:17;;;;;;;31.00;15.93;;;;;;;6.52;100.00;95110.78;5132557;28;20198;-80
2022/12/06 04:51:44;;;;;;;32.40;17.10;;;;;;;6.63;100.00;95125.81;5132829;27;20195;-81
2022/12/06 04:54:12;;;;;;;32.37;17.40;;;;;;;6.72;100.00;95118.75;5136525;27;20218;-82
2022/12/06 04:56:39;;;;;;;36.67;18.80;;;;;;;6.73;100.00;95128.88;5136897;27;20191;-81
2022/12/06 04:59:06;;;;;;;39.33;20.03;;;;;;;6.75;100.00;95116.59;5119386;27;20551;-80
2022/12/06 05:01:33;;;;;;;39.27;19.50;;;;;;;6.73;100.00;95115.16;5136487;27;20199;-79
2022/12/06 05:03:59;;;;;;;43.13;21.03;;;;;;;6.85;100.00;95124.03;5136223;27;20184;-79
2022/12/06 05:06:26;;;;;;;39.47;19.83;;;;;;;6.81;100.00;95121.03;5135412;27;20198;-80
2022/12/06 05:08:53;;;;;;;38.43;19.70;;;;;;;6.85;100.00;95124.84;5135706;27;20635;-81
2022/12/06 05:11:22;;;;;;;48.07;20.17;;;;;;;6.84;100.00;95123.25;5135281;27;20183;-79
2022/12/06 05:13:48;;;;;;;39.03;19.40;;;;;;;6.87;100.00;95116.13;5135143;27;20213;-80
2022/12/06 05:16:15;;;;;;;26.13;13.87;;;;;;;6.80;100.00;95122.03;5136357;27;20202;-81
2022/12/06 05:18:42;;;;;;;25.53;11.93;;;;;;;6.74;100.00;95121.94;5135336;27;20202;-82
2022/12/06 05:21:13;;;;;;;21.70;11.87;;;;;;;6.75;100.00;95121.75;5135069;27;20188;-82
2022/12/06 05:23:40;;;;;;;22.60;11.93;;;;;;;6.77;100.00;95114.63;5136705;27;20187;-82
2022/12/06 05:26:10;;;;;;;22.27;11.17;;;;;;;6.67;100.00;95115.91;5135402;27;20199;-81
2022/12/06 05:28:39;;;;;;;22.90;10.73;;;;;;;6.75;100.00;95124.34;5121014;27;20203;-81
2022/12/06 05:31:06;;;;;;;18.43;9.40;;;;;;;6.74;100.00;95127.91;5130823;27;20565;-81
2022/12/06 05:33:34;;;;;;;14.83;8.47;;;;;;;6.70;100.00;95131.84;5134513;27;20293;-81
2022/12/06 05:36:07;;;;;;;15.47;9.00;;;;;;;6.71;100.00;95130.88;5135472;27;20191;-86
2022/12/06 05:38:34;;;;;;;17.27;9.17;;;;;;;6.64;100.00;95119.66;5135116;27;20222;-86
2022/12/06 05:41:01;;;;;;;18.20;8.60;;;;;;;6.80;100.00;95118.63;5134080;27;20187;-81
2022/12/06 05:43:28;;;;;;;17.50;8.47;;;;;;;6.65;100.00;95110.94;5134809;27;20546;-81
2022/12/06 05:45:57;;;;;;;16.63;8.87;;;;;;;6.78;100.00;95121.38;5134215;27;20195;-81
2022/12/06 05:48:27;;;;;;;19.40;9.73;;;;;;;6.76;100.00;95109.66;5134994;27;20195;-81
2022/12/06 05:50:54;;;;;;;16.93;8.80;;;;;;;6.81;100.00;95113.28;5136924;27;20219;-80
2022/12/06 05:53:21;;;;;;;16.80;8.97;;;;;;;6.88;100.00;95107.38;5134800;27;20216;-80
2022/12/06 05:55:49;;;;;;;14.67;8.27;;;;;;;6.88;100.00;95115.13;5135194;27;20198;-82
2022/12/06 05:58:16;;;;;;;21.20;10.00;;;;;;;6.90;100.00;95111.38;5132386;27;20542;-81
2022/12/06 06:00:49;;;;;;;15.40;8.43;;;;;;;6.78;100.00;95084.44;5136032;27;20210;-82
2022/12/06 06:03:23;;;;;;;15.73;9.47;;;;;;;6.89;100.00;95103.81;5134405;27;20192;-84
2022/12/06 06:05:51;;;;;;;19.03;8.57;;;;;;;6.93;100.00;95097.28;5134649;27;20182;-79
2022/12/06 06:08:18;;;;;;;16.57;8.43;;;;;;;7.02;100.00;95109.91;5135776;27;20188;-84
2022/12/06 06:10:45;;;;;;;17.83;8.60;;;;;;;6.97;100.00;95098.53;5133211;27;20707;-82
2022/12/06 06:13:12;;;;;;;21.93;10.60;;;;;;;7.05;100.00;95113.91;5118176;27;20208;-83
2022/12/06 06:15:39;;;;;;;14.83;8.40;;;;;;;6.96;100.00;95104.66;5126788;27;20196;-84
2022/12/06 06:18:06;;;;;;;17.37;9.10;;;;;;;6.88;100.00;95109.97;5134778;27;20191;-83
2022/12/06 06:20:35;;;;;;;15.50;8.93;;;;;;;6.87;100.00;95111.75;5134738;27;20202;-82
2022/12/06 06:23:01;;;;;;;18.33;8.90;;;;;;;6.85;100.00;95111.13;5131642;27;20194;-89
2022/12/06 06:25:28;;;;;;;18.53;8.80;;;;;;;6.91;100.00;95112.19;5125550;27;20196;-86
2022/12/06 06:27:55;;;;;;;21.37;9.40;;;;;;;7.00;100.00;95127.38;5114850;28;20219;-88
2022/12/06 06:30:22;;;;;;;19.23;9.60;;;;;;;6.95;100.00;95110.84;5129683;27;20195;-89
2022/12/06 06:32:49;;;;;;;20.90;9.60;;;;;;;7.08;100.00;95126.44;5130822;27;20192;-83
2022/12/06 06:35:16;;;;;;;19.30;8.97;;;;;;;7.10;100.00;95133.03;5115087;28;20223;-88
2022/12/06 06:37:54;;;;;;;21.03;9.43;;;;;;;7.14;100.00;95126.53;5129364;27;20692;-89
2022/12/06 06:40:21;;;;;;;23.23;8.97;;;;;;;7.13;100.00;95118.97;5121621;27;20191;-87
2022/12/06 06:42:47;;;;;;;15.63;8.27;;;;;;;7.08;100.00;95108.38;5118584;27;20199;-88
2022/12/06 06:45:14;;;;;;;19.83;8.57;;;;;;;7.11;100.00;95108.00;5118431;27;20196;-88
2022/12/06 06:47:42;;;;;;;17.53;8.30;;;;;;;7.10;100.00;95114.94;5120593;27;20188;-91
2022/12/06 06:50:09;;;;;;;22.00;8.33;;;;;;;7.11;100.00;95110.59;5135863;27;20218;-89
2022/12/06 06:52:36;;;;;;;21.30;8.47;;;;;;;7.03;100.00;95100.38;5136871;27;20724;-89
2022/12/06 06:55:05;;;;;;;14.63;8.03;;;;;;;7.23;100.00;95109.09;5135798;27;20211;-89
2022/12/06 06:57:34;;;;;;;17.07;8.80;;;;;;;7.14;100.00;95112.78;5132768;27;20200;-88
2022/12/06 07:00:01;;;;;;;19.57;8.47;;;;;;;7.13;100.00;95100.88;5135242;27;20283;-89
2022/12/06 07:02:31;;;;;;;14.10;7.63;;;;;;;7.21;100.00;95096.38;5137288;27;20248;-91
2022/12/06 07:04:58;;;;;;;15.23;8.17;;;;;;;7.09;100.00;95095.28;5134407;27;20206;-87
2022/12/06 07:07:25;;;;;;;14.10;7.90;;;;;;;7.27;100.00;95115.50;5134253;27;20245;-88
2022/12/06 07:09:52;;;;;;;13.27;7.00;;;;;;;7.24;100.00;95111.50;5135684;27;20242;-88
2022/12/06 07:12:20;;;;;;;17.73;8.00;;;;;;;7.27;100.00;95111.13;5137992;27;20203;-87
2022/12/06 07:14:47;;;;;;;15.20;8.33;;;;;;;7.30;100.00;95105.56;5135981;27;20215;-87
2022/12/06 07:17:14;;;;;;;17.37;8.80;;;;;;;7.37;100.00;95110.81;5134073;27;20199;-87
2022/12/06 07:19:41;;;;;;;20.13;8.30;;;;;;;7.43;100.00;95104.91;5134377;27;20188;-87
2022/12/06 07:22:09;;;;;;;21.13;7.77;;;;;;;7.42;100.00;95111.84;5124657;27;20340;-87
2022/12/06 07:24:36;;;;;;;24.73;8.47;;;;;;;7.38;100.00;95105.47;5091723;27;20319;-87
2022/12/06 07:27:02;;;;;;;13.30;7.60;;;;;;;7.38;100.00;95113.22;5111050;27;20359;-87
2022/12/06 07:29:31;;;;;;;15.83;8.03;;;;;;;7.14;100.00;95097.28;5116624;27;20203;-86
2022/12/06 07:31:58;;;;;;;14.63;7.90;;;;;;;7.32;100.00;95105.41;5111443;27;20203;-87
2022/12/06 07:34:24;;;;;;;20.93;8.37;;;;;;;7.40;100.00;95113.03;5110546;28;20220;-86
2022/12/06 07:36:51;;;;;;;13.20;7.80;;;;;;;7.40;100.00;95113.03;5111033;27;20203;-86
2022/12/06 07:39:18;;;;;;;28.53;9.03;;;;;;;7.42;100.00;95090.34;5111556;28;20206;-85
2022/12/06 07:47:15;;;;;;;20.53;8.77;;;;;;;7.37;100.00;95083.19;5115143;27;20202;-87
2022/12/06 07:49:42;;;;;;;17.30;8.97;;;;;;;7.57;100.00;95096.25;5111345;28;20208;-87
2022/12/06 07:52:09;;;;;;;18.13;8.43;;;;;;;7.61;100.00;95113.00;5110382;28;20628;-85
2022/12/06 07:54:36;;;;;;;17.33;9.47;;;;;;;7.62;100.00;95104.22;5109675;28;20227;-87
2022/12/06 07:57:03;;;;;;;22.20;10.13;;;;;;;7.72;100.00;95111.66;5109756;28;20196;-87
2022/12/06 07:59:32;;;;;;;21.37;8.60;;;;;;;7.70;100.00;95101.53;5113211;27;20252;-86
2022/12/06 08:01:59;;;;;;;21.03;10.37;;;;;;;7.84;100.00;95115.34;5112953;27;20810;-85
2022/12/06 08:04:26;;;;;;;21.67;9.47;;;;;;;7.82;100.00;95115.50;5110328;28;20207;-85
2022/12/06 08:06:53;;;;;;;15.40;8.87;;;;;;;7.93;100.00;95119.38;5109247;28;20650;-85
2022/12/06 08:09:20;;;;;;;20.77;9.57;;;;;;;7.97;100.00;95110.22;5105068;28;20235;-86
2022/12/06 08:11:47;;;;;;;18.90;9.13;;;;;;;7.97;100.00;95099.88;5089057;28;20196;-87
2022/12/06 08:14:14;;;;;;;20.13;9.13;;;;;;;7.98;100.00;95112.66;5096920;28;20212;-86
2022/12/06 08:16:42;;;;;;;16.33;8.03;;;;;;;7.98;100.00;95093.72;5091812;28;20841;-86
2022/12/06 08:19:09;;;;;;;15.43;7.77;;;;;;;8.00;99.59;95097.72;5091517;28;20209;-86
2022/12/06 08:21:36;;;;;;;15.47;8.23;;;;;;;7.90;99.51;95107.63;5093451;28;20208;-85
2022/12/06 08:24:04;;;;;;;16.13;8.27;;;;;;;7.55;100.00;95113.75;5091626;28;20280;-86
2022/12/06 08:26:31;;;;;;;25.57;10.53;;;;;;;7.15;100.00;95099.69;5095925;28;20200;-87
2022/12/06 08:29:00;;;;;;;17.07;8.53;;;;;;;6.88;100.00;95084.13;5094426;28;20193;-88
2022/12/06 08:31:27;;;;;;;16.47;8.70;;;;;;;7.03;100.00;95090.84;5097114;28;20204;-78
2022/12/06 08:33:55;;;;;;;15.87;9.20;;;;;;;6.98;100.00;95076.88;5093563;28;20255;-86
2022/12/06 08:36:24;;;;;;;19.13;9.37;;;;;;;6.96;100.00;95094.34;5056336;28;20193;-85
2022/12/06 08:38:52;;;;;;;20.40;9.77;;;;;;;6.88;100.00;95094.47;5088656;28;20203;-88
2022/12/06 08:44:04;;;;;;;25.93;10.17;;;;;;;7.07;100.00;95089.47;5095576;28;20199;-86
2022/12/06 08:46:32;;;;;;;18.20;10.37;;;;;;;7.18;100.00;95091.59;5094357;28;20215;-87
2022/12/06 08:49:01;;;;;;;19.27;10.20;;;;;;;7.30;100.00;95086.72;5094109;28;20197;-87
2022/12/06 08:51:29;;;;;;;19.43;10.17;;;;;;;7.32;100.00;95093.28;5094940;28;20216;-88
2022/12/06 08:53:57;;;;;;;20.77;9.83;;;;;;;7.46;100.00;95088.19;5094110;28;20580;-87
2022/12/06 08:56:24;;;;;;;23.10;10.40;;;;;;;7.56;100.00;95091.28;5092738;28;20598;-88
2022/12/06 08:58:53;;;;;;;17.40;9.10;;;;;;;7.67;100.00;95094.16;5095779;28;20207;-87
2022/12/06 09:01:23;;;;;;;19.57;9.87;;;;;;;7.77;100.00;95097.19;5093635;28;20258;-87
2022/12/06 09:03:50;;;;;;;18.30;9.37;;;;;;;7.76;100.00;95090.41;5094956;28;20215;-85
2022/12/06 09:06:20;;;;;;;19.27;10.03;;;;;;;7.81;100.00;95071.72;5096004;28;20208;-87
2022/12/06 09:08:47;;;;;;;15.60;9.30;;;;;;;7.98;100.00;95084.19;5092496;28;20200;-85
2022/12/06 09:11:15;;;;;;;16.50;9.40;;;;;;;8.04;100.00;95072.25;5101471;28;20690;-86
2022/12/06 09:13:43;;;;;;;15.97;8.77;;;;;;;8.10;100.00;95055.16;5111647;28;20200;-85
2022/12/06 09:16:12;;;;;;;15.33;8.47;;;;;;;8.17;100.00;95058.56;5102195;28;20570;-87
2022/12/06 09:18:39;;;;;;;15.93;9.00;;;;;;;8.25;100.00;95054.03;5103733;28;20192;-86
2022/12/06 09:21:08;;;;;;;24.47;9.77;;;;;;;8.33;100.00;95047.91;5099985;28;20204;-85
2022/12/06 09:23:37;;;;;;;17.63;9.70;;;;;;;8.39;100.00;95041.97;5098941;28;20288;-85
2022/12/06 09:26:06;;;;;;;19.60;8.60;;;;;;;8.44;99.15;95044.75;5096831;28;20201;-84
2022/12/06 09:28:35;;;;;;;18.70;9.43;;;;;;;8.43;99.19;95040.56;5099650;28;20207;-84
2022/12/06 09:31:03;;;;;;;16.10;9.13;;;;;;;8.53;98.29;95030.66;5101766;28;20203;-83
2022/12/06 09:33:29;;;;;;;21.70;9.07;;;;;;;8.36;98.38;95019.84;5103376;28;20207;-83
2022/12/06 09:35:58;;;;;;;17.87;8.77;;;;;;;7.93;99.25;95019.25;5102975;28;20228;-83
2022/12/06 09:38:29;;;;;;;20.33;9.87;;;;;;;7.67;100.00;95007.97;5094211;28;20208;-83
2022/12/06 09:41:08;;;;;;;18.20;9.50;;;;;;;7.75;100.00;94993.09;5104733;28;20195;-85
2022/12/06 09:43:48;;;;;;;18.53;9.70;;;;;;;7.91;100.00;94989.38;5106186;28;20623;-84
2022/12/06 09:46:31;;;;;;;23.10;8.97;;;;;;;8.06;100.00;94994.41;5104685;28;20677;-86
2022/12/06 09:49:11;;;;;;;20.13;9.30;;;;;;;8.08;100.00;94988.03;5099928;28;20242;-85
2022/12/06 09:51:54;;;;;;;18.60;9.47;;;;;;;8.20;100.00;94998.63;5100148;28;20195;-83
2022/12/06 09:54:34;;;;;;;19.30;9.63;;;;;;;7.99;100.00;94995.19;5100479;28;20205;-86
2022/12/06 09:57:08;;;;;;;21.27;9.40;;;;;;;7.87;100.00;94996.75;5105867;28;20219;-86
2022/12/06 09:59:45;;;;;;;21.37;9.63;;;;;;;7.90;100.00;94988.59;5106499;28;20203;-86
2022/12/06 10:02:30;;;;;;;21.03;9.67;;;;;;;8.12;100.00;94983.28;5100269;28;20204;-88
2022/12/06 10:05:20;;;;;;;24.43;9.57;;;;;;;8.39;100.00;94988.38;5106747;28;20184;-86
2022/12/06 10:07:54;;;;;;;20.37;9.13;;;;;;;8.53;100.00;94984.03;5107675;28;20705;-87
2022/12/06 10:10:30;;;;;;;24.47;9.13;;;;;;;8.44;99.78;94970.47;5113049;27;20655;-86
2022/12/06 10:13:11;;;;;;;18.70;10.03;;;;;;;8.25;100.00;94966.03;5113646;28;20249;-85
2022/12/06 10:15:54;;;;;;;21.60;9.60;;;;;;;8.25;100.00;94965.22;5108440;28;20220;-85
2022/12/06 10:18:37;;;;;;;21.90;11.17;;;;;;;8.40;100.00;94953.72;5115430;27;20192;-80
2022/12/06 10:21:16;;;;;;;21.77;10.30;;;;;;;8.57;99.61;94950.75;5111910;27;20184;-86
2022/12/06 10:23:56;;;;;;;19.10;9.90;;;;;;;8.77;99.10;94947.19;5109113;27;20211;-78
2022/12/06 10:26:30;;;;;;;16.97;9.57;;;;;;;9.31;99.44;94946.13;5113121;27;20195;-80
2022/12/06 10:29:07;;;;;;;19.47;10.33;;;;;;;9.81;95.71;94934.22;5115814;27;20202;-80
2022/12/06 10:31:44;;;;;;;19.73;10.00;;;;;;;9.94;93.55;94940.13;5114695;27;20590;-81
2022/12/06 10:34:20;;;;;;;18.67;9.20;;;;;;;9.99;93.48;94929.94;5108942;27;20204;-81
2022/12/06 10:36:56;;;;;;;19.60;8.60;;;;;;;10.05;92.60;94938.69;5116516;27;20344;-81
2022/12/06 10:39:31;;;;;;;19.27;9.60;;;;;;;9.91;92.37;94944.94;5114756;27;20192;-81
2022/12/06 10:42:04;;;;;;;21.73;9.60;;;;;;;9.81;92.59;94945.41;5113636;27;20202;-79
2022/12/06 10:44:37;;;;;;;21.13;10.30;;;;;;;9.72;93.97;94940.63;5115181;27;20201;-81
2022/12/06 10:47:11;;;;;;;18.97;10.33;;;;;;;9.85;93.82;94941.38;5110472;27;20608;-80
2022/12/06 10:49:49;;;;;;;23.17;10.03;;;;;;;9.96;91.98;94939.91;5110792;27;20248;-79
2022/12/06 10:52:33;;;;;;;19.60;9.20;;;;;;;9.79;92.31;94938.78;5108729;27;20192;-82
2022/12/06 10:55:14;;;;;;;18.97;10.40;;;;;;;9.80;93.03;94935.22;5113527;27;20207;-78
2022/12/06 10:57:46;;;;;;;20.63;10.00;;;;;;;9.85;92.72;94923.19;5112143;27;20207;-79
2022/12/06 11:00:17;;;;;;;16.97;8.50;;;;;;;9.75;93.21;94915.06;5115344;27;20196;-77
2022/12/06 11:02:53;;;;;;;20.00;9.43;;;;;;;9.84;93.26;94910.44;5115677;27;20196;-78
2022/12/06 11:05:24;;;;;;;19.53;9.80;;;;;;;10.10;91.74;94911.09;5109960;27;20183;-78
2022/12/06 11:07:58;;;;;;;17.03;9.23;;;;;;;10.31;91.05;94897.00;5118494;27;20291;-78
2022/12/06 11:10:29;;;;;;;18.97;9.93;;;;;;;10.45;90.66;94892.50;5115003;27;20234;-78
2022/12/06 11:13:01;;;;;;;15.97;9.27;;;;;;;10.67;89.58;94897.16;5118141;27;21032;-78
2022/12/06 11:15:35;;;;;;;18.30;9.53;;;;;;;10.96;87.89;94897.53;5112122;27;20207;-79
2022/12/06 11:18:11;;;;;;;17.70;9.27;;;;;;;11.14;87.13;94893.13;5110631;27;20192;-79
2022/12/06 11:20:42;;;;;;;19.87;9.83;;;;;;;11.67;86.03;94879.56;5116880;27;20201;-79
2022/12/06 11:23:17;;;;;;;17.37;9.27;;;;;;;11.93;82.65;94890.47;5111091;27;20199;-79
2022/12/06 11:26:01;;;;;;;17.27;9.17;;;;;;;11.42;84.15;94884.06;5108013;27;20191;-82
2022/12/06 11:28:35;;;;;;;16.13;9.47;;;;;;;10.65;87.16;94885.38;5108888;27;20203;-79
2022/12/06 11:31:11;;;;;;;17.17;9.30;;;;;;;10.61;87.65;94879.03;5111556;27;20856;-80
2022/12/06 11:33:38;;;;;;;15.37;9.27;;;;;;;10.89;87.83;94881.97;5112156;27;20190;-79
2022/12/06 11:36:07;;;;;;;20.80;9.40;;;;;;;11.64;87.37;94877.38;5113447;27;20226;-79
2022/12/06 11:38:39;;;;;;;16.40;10.30;;;;;;;12.06;83.53;94881.69;5113115;27;20198;-79
2022/12/06 11:41:11;;;;;;;20.33;9.10;;;;;;;12.38;81.72;94893.44;5111323;27;20279;-79
2022/12/06 11:43:38;;;;;;;16.90;9.57;;;;;;;12.59;81.04;94896.56;5109620;27;20207;-79
2022/12/06 11:46:10;;;;;;;15.17;9.47;;;;;;;13.03;80.52;94883.81;5109754;27;20737;-82
2022/12/06 11:48:38;;;;;;;16.90;9.43;;;;;;;13.57;78.39;94887.84;5110869;27;20275;-78
2022/12/06 11:51:08;;;;;;;17.87;9.03;;;;;;;13.79;76.52;94880.22;5112318;27;20192;-79
2022/12/06 11:53:39;;;;;;;12.80;8.87;;;;;;;13.81;75.93;94885.19;5110081;28;20203;-78
2022/12/06 11:56:15;;;;;;;17.37;9.80;;;;;;;13.73;76.34;94880.34;5113801;27;20318;-78
2022/12/06 11:58:49;;;;;;;16.87;8.93;;;;;;;13.76;76.09;94877.25;5109740;27;20199;-79
2022/12/06 12:01:17;;;;;;;19.57;9.77;;;;;;;13.78;75.02;94854.31;5109581;27;20195;-78
2022/12/06 12:03:46;;;;;;;17.70;9.53;;;;;;;13.84;74.85;94864.63;5112599;27;20192;-79
2022/12/06 12:06:20;;;;;;;15.47;9.10;;;;;;;13.42;75.62;94863.28;5121776;27;20645;-80